createdAt,value
2019-02-18T00:01:30.692Z,21.30
2019-02-18T00:04:00.373Z,21.30
2019-02-18T00:06:30.074Z,21.30
2019-02-18T00:08:59.813Z,21.20
2019-02-18T00:11:29.514Z,21.20
2019-02-18T00:13:59.281Z,21.20
2019-02-18T00:16:28.948Z,21.30
2019-02-18T00:18:58.640Z,21.20
2019-02-18T00:21:28.304Z,21.30
2019-02-18T00:23:57.982Z,21.30
2019-02-18T00:26:27.743Z,21.20
2019-02-18T00:28:57.421Z,21.20
2019-02-18T00:31:27.183Z,21.20
2019-02-18T00:33:56.861Z,21.20
2019-02-18T00:36:26.551Z,21.20
2019-02-18T00:38:56.225Z,21.20
2019-02-18T00:41:25.935Z,21.20
2019-02-18T00:43:55.689Z,21.20
2019-02-18T00:46:25.360Z,21.20
2019-02-18T00:48:55.127Z,21.20
2019-02-18T00:51:24.876Z,21.20
2019-02-18T00:53:54.563Z,21.20
2019-02-18T00:56:24.239Z,21.20
2019-02-18T00:58:54.009Z,21.30
2019-02-18T01:01:23.685Z,21.30
2019-02-18T01:03:53.376Z,21.30
2019-02-18T01:06:23.072Z,21.30
2019-02-18T01:08:52.817Z,21.30
2019-02-18T01:11:22.585Z,21.30
2019-02-18T01:13:52.320Z,21.30
2019-02-18T01:16:22.093Z,21.30
2019-02-18T01:18:51.827Z,21.30
2019-02-18T01:21:21.532Z,21.30
2019-02-18T01:23:51.288Z,21.30
2019-02-18T01:26:20.965Z,21.30
2019-02-18T01:28:50.712Z,21.30
2019-02-18T01:31:20.396Z,21.30
2019-02-18T01:33:50.091Z,21.30
2019-02-18T01:36:19.769Z,21.30
2019-02-18T01:38:49.532Z,21.30
2019-02-18T01:41:19.199Z,21.30
2019-02-18T01:43:48.885Z,21.30
2019-02-18T01:46:18.560Z,21.30
2019-02-18T01:48:48.316Z,21.30
2019-02-18T01:51:18.003Z,21.30
2019-02-18T01:53:47.675Z,21.40
2019-02-18T01:56:17.433Z,21.40
2019-02-18T01:58:47.170Z,21.40
2019-02-18T02:01:16.851Z,21.40
2019-02-18T02:03:46.516Z,21.30
2019-02-18T02:06:16.195Z,21.40
2019-02-18T02:08:45.871Z,21.40
2019-02-18T02:11:15.647Z,21.40
2019-02-18T02:13:45.383Z,21.40
2019-02-18T02:16:15.142Z,21.40
2019-02-18T02:18:44.909Z,21.40
2019-02-18T02:21:14.671Z,21.40
2019-02-18T02:23:44.412Z,21.40
2019-02-18T02:26:14.077Z,21.40
2019-02-18T02:28:43.760Z,21.40
2019-02-18T02:31:13.428Z,21.40
2019-02-18T02:33:43.117Z,21.40
2019-02-18T02:36:12.895Z,21.40
2019-02-18T02:38:42.618Z,21.40
2019-02-18T02:41:12.303Z,21.40
2019-02-18T02:43:42.049Z,21.40
2019-02-18T02:46:11.816Z,21.40
2019-02-18T02:48:41.556Z,21.40
2019-02-18T02:51:11.313Z,21.40
2019-02-18T02:53:41.008Z,21.40
2019-02-18T02:56:10.749Z,21.40
2019-02-18T02:58:40.508Z,21.40
2019-02-18T03:01:10.265Z,21.40
2019-02-18T03:03:39.956Z,21.40
2019-02-18T03:06:09.620Z,21.40
2019-02-18T03:08:39.388Z,21.50
2019-02-18T03:11:09.156Z,21.50
2019-02-18T03:13:38.850Z,21.50
2019-02-18T03:16:08.594Z,21.50
2019-02-18T03:18:38.361Z,21.50
2019-02-18T03:21:08.129Z,21.50
2019-02-18T03:23:37.864Z,21.50
2019-02-18T03:26:07.552Z,21.50
2019-02-18T03:28:49.346Z,21.50
2019-02-18T03:31:22.630Z,21.50
2019-02-18T03:34:04.597Z,21.50
2019-02-18T03:36:33.681Z,21.50
2019-02-18T03:39:04.680Z,21.50
2019-02-18T03:41:34.452Z,21.50
2019-02-18T03:44:04.197Z,21.50
2019-02-18T03:46:33.967Z,21.50
2019-02-18T03:49:03.713Z,21.50
2019-02-18T03:51:33.480Z,21.50
2019-02-18T03:54:03.147Z,21.50
2019-02-18T03:56:32.847Z,21.50
2019-02-18T03:59:02.593Z,21.50
2019-02-18T04:01:32.354Z,21.50
2019-02-18T04:04:02.102Z,21.50
2019-02-18T04:06:31.845Z,21.50
2019-02-18T04:09:01.602Z,21.60
2019-02-18T04:11:31.347Z,21.60
2019-02-18T04:14:01.103Z,21.50
2019-02-18T04:16:30.844Z,21.60
2019-02-18T04:19:00.612Z,21.60
2019-02-18T04:21:30.340Z,21.50
2019-02-18T04:24:00.023Z,21.60
2019-02-18T04:26:29.688Z,21.60
2019-02-18T04:28:59.439Z,21.60
2019-02-18T04:31:29.109Z,21.60
2019-02-18T04:33:58.863Z,21.60
2019-02-18T04:36:28.535Z,21.60
2019-02-18T04:38:58.290Z,21.60
2019-02-18T04:41:28.037Z,21.60
2019-02-18T04:43:57.725Z,21.60
2019-02-18T04:46:28.449Z,21.60
2019-02-18T04:48:58.109Z,21.60
2019-02-18T04:51:27.865Z,21.60
2019-02-18T04:53:57.530Z,21.60
2019-02-18T04:56:27.283Z,21.60
2019-02-18T04:58:56.960Z,21.60
2019-02-18T05:01:26.702Z,21.60
2019-02-18T05:03:56.461Z,21.60
2019-02-18T05:06:26.201Z,21.60
2019-02-18T05:09:05.111Z,21.60
2019-02-18T05:11:27.308Z,21.60
2019-02-18T05:13:56.983Z,21.60
2019-02-18T05:16:26.654Z,21.60
2019-02-18T05:18:56.413Z,21.50
2019-02-18T05:21:26.165Z,21.60
2019-02-18T05:23:55.892Z,21.60
2019-02-18T05:26:25.648Z,21.50
2019-02-18T05:28:55.322Z,21.50
2019-02-18T05:31:25.081Z,21.50
2019-02-18T05:33:54.818Z,21.50
2019-02-18T05:36:24.577Z,21.50
2019-02-18T05:38:54.313Z,21.50
2019-02-18T05:41:24.049Z,21.50
2019-02-18T05:43:53.710Z,21.50
2019-02-18T05:46:24.482Z,21.50
2019-02-18T05:48:54.178Z,21.50
2019-02-18T05:51:23.926Z,21.50
2019-02-18T05:53:53.684Z,21.60
2019-02-18T05:56:23.437Z,21.60
2019-02-18T05:58:53.101Z,21.60
2019-02-18T06:01:22.860Z,21.60
2019-02-18T06:03:52.532Z,21.60
2019-02-18T06:06:22.327Z,21.60
2019-02-18T06:08:52.076Z,21.60
2019-02-18T06:11:21.838Z,21.50
2019-02-18T06:13:51.587Z,21.50
2019-02-18T06:16:21.250Z,21.40
2019-02-18T06:18:50.930Z,21.30
2019-02-18T06:21:20.588Z,21.30
2019-02-18T06:23:50.276Z,21.30
2019-02-18T06:26:19.939Z,21.20
2019-02-18T06:28:49.705Z,21.20
2019-02-18T06:31:19.465Z,21.20
2019-02-18T06:33:49.128Z,21.10
2019-02-18T06:36:18.802Z,21.10
2019-02-18T06:38:48.557Z,21.10
2019-02-18T06:41:18.240Z,21.10
2019-02-18T06:43:47.908Z,21.10
2019-02-18T06:46:31.575Z,21.10
2019-02-18T06:49:02.941Z,21.00
2019-02-18T06:51:32.620Z,21.00
2019-02-18T06:54:02.299Z,21.00
2019-02-18T06:56:39.788Z,21.00
2019-02-18T06:59:11.105Z,20.90
2019-02-18T07:01:42.452Z,20.90
2019-02-18T07:04:13.765Z,20.90
2019-02-18T07:06:54.089Z,20.90
2019-02-18T07:09:28.168Z,20.80
2019-02-18T07:12:02.505Z,20.80
2019-02-18T07:14:32.165Z,20.70
2019-02-18T07:17:01.850Z,20.70
2019-02-18T07:19:31.507Z,20.60
2019-02-18T07:22:01.192Z,20.40
2019-02-18T07:24:30.885Z,20.40
2019-02-18T07:27:00.560Z,20.40
2019-02-18T07:29:30.311Z,20.40
2019-02-18T07:32:00.049Z,20.40
2019-02-18T07:34:30.811Z,20.40
2019-02-18T07:37:00.552Z,20.40
2019-02-18T07:39:31.205Z,20.50
2019-02-18T07:42:00.869Z,20.40
2019-02-18T07:44:30.548Z,20.40
2019-02-18T07:47:00.233Z,20.40
2019-02-18T07:49:29.975Z,20.50
2019-02-18T07:51:59.661Z,20.50
2019-02-18T07:54:30.410Z,20.50
2019-02-18T07:57:00.106Z,20.50
2019-02-18T07:59:29.845Z,20.50
2019-02-18T08:01:59.609Z,20.50
2019-02-18T08:04:29.308Z,20.50
2019-02-18T08:06:59.052Z,20.50
2019-02-18T08:09:28.747Z,20.40
2019-02-18T08:11:58.484Z,20.40
2019-02-18T08:14:28.194Z,20.40
2019-02-18T08:16:57.921Z,20.30
2019-02-18T08:19:27.682Z,20.30
2019-02-18T08:21:57.397Z,20.30
2019-02-18T08:24:27.162Z,20.30
2019-02-18T08:26:56.904Z,20.20
2019-02-18T08:29:26.588Z,20.30
2019-02-18T08:31:56.358Z,20.20
2019-02-18T08:34:26.091Z,20.20
2019-02-18T08:36:55.798Z,20.20
2019-02-18T08:39:25.537Z,20.20
2019-02-18T08:41:55.365Z,20.20
2019-02-18T08:44:25.046Z,20.20
2019-02-18T08:46:54.807Z,20.20
2019-02-18T08:49:24.527Z,20.10
2019-02-18T08:51:54.214Z,20.10
2019-02-18T08:54:23.978Z,20.10
2019-02-18T08:56:53.708Z,20.10
2019-02-18T08:59:24.456Z,20.10
2019-02-18T09:01:54.121Z,20.00
2019-02-18T09:04:23.871Z,20.00
2019-02-18T09:06:53.606Z,20.10
2019-02-18T09:09:23.367Z,20.00
2019-02-18T09:11:53.095Z,20.00
2019-02-18T09:14:22.779Z,20.00
2019-02-18T09:16:52.445Z,20.00
2019-02-18T09:19:22.203Z,20.00
2019-02-18T09:21:53.594Z,20.00
2019-02-18T09:24:30.984Z,19.90
2019-02-18T09:27:00.720Z,19.90
2019-02-18T09:29:30.406Z,19.90
2019-02-18T09:32:00.081Z,19.90
2019-02-18T09:34:29.743Z,19.90
2019-02-18T09:36:59.430Z,19.90
2019-02-18T09:39:31.502Z,20.00
2019-02-18T09:42:00.581Z,19.90
2019-02-18T09:44:30.285Z,19.90
2019-02-18T09:46:59.975Z,19.90
2019-02-18T09:49:29.712Z,19.90
2019-02-18T09:51:59.476Z,19.90
2019-02-18T09:54:29.165Z,19.90
2019-02-18T09:56:58.889Z,19.80
2019-02-18T09:59:28.575Z,19.80
2019-02-18T10:01:58.313Z,19.80
2019-02-18T10:04:28.068Z,19.80
2019-02-18T10:06:57.735Z,19.80
2019-02-18T10:09:27.488Z,19.80
2019-02-18T10:11:57.176Z,19.80
2019-02-18T10:14:26.918Z,19.80
2019-02-18T10:16:57.807Z,19.80
2019-02-18T10:19:27.541Z,19.80
2019-02-18T10:21:57.223Z,19.80
2019-02-18T10:24:26.900Z,19.70
2019-02-18T10:26:56.656Z,19.70
2019-02-18T10:29:26.320Z,19.70
2019-02-18T10:31:56.003Z,19.70
2019-02-18T10:34:25.751Z,19.70
2019-02-18T10:36:55.505Z,19.70
2019-02-18T10:39:25.257Z,19.70
2019-02-18T10:41:54.992Z,19.70
2019-02-18T10:44:24.650Z,19.70
2019-02-18T10:46:54.344Z,19.70
2019-02-18T10:49:24.072Z,19.70
2019-02-18T10:51:54.137Z,19.70
2019-02-18T10:54:23.888Z,19.70
2019-02-18T10:56:53.649Z,19.60
2019-02-18T10:59:23.385Z,19.70
2019-02-18T11:01:53.145Z,19.70
2019-02-18T11:04:22.900Z,19.70
2019-02-18T11:06:52.836Z,19.60
2019-02-18T11:09:22.598Z,19.60
2019-02-18T11:11:52.346Z,19.60
2019-02-18T11:14:22.305Z,19.60
2019-02-18T11:16:52.056Z,19.60
2019-02-18T11:19:22.861Z,19.60
2019-02-18T11:21:52.616Z,19.60
2019-02-18T11:24:22.393Z,19.60
2019-02-18T11:26:52.553Z,19.60
2019-02-18T11:29:22.304Z,19.60
2019-02-18T11:31:52.072Z,19.60
2019-02-18T11:34:21.810Z,19.60
2019-02-18T11:36:51.636Z,19.60
2019-02-18T11:39:21.317Z,19.60
2019-02-18T11:41:51.056Z,19.60
2019-02-18T11:44:20.817Z,19.50
2019-02-18T11:46:50.579Z,19.50
2019-02-18T11:49:20.317Z,19.60
2019-02-18T11:51:50.068Z,19.60
2019-02-18T11:54:20.135Z,19.50
2019-02-18T11:56:49.925Z,19.50
2019-02-18T11:59:24.236Z,19.60
2019-02-18T12:01:51.064Z,19.50
2019-02-18T12:04:20.819Z,19.50
2019-02-18T12:06:50.576Z,19.50
2019-02-18T12:09:20.323Z,19.50
2019-02-18T12:11:50.079Z,19.50
2019-02-18T12:14:19.804Z,19.50
2019-02-18T12:16:49.563Z,19.50
2019-02-18T12:19:19.331Z,19.50
2019-02-18T12:21:49.091Z,19.50
2019-02-18T12:24:18.849Z,19.50
2019-02-18T12:26:48.656Z,19.50
2019-02-18T12:29:26.314Z,19.50
2019-02-18T12:31:49.767Z,19.50
2019-02-18T12:34:19.533Z,19.50
2019-02-18T12:36:49.280Z,19.50
2019-02-18T12:39:19.036Z,19.50
2019-02-18T12:41:49.172Z,19.50
2019-02-18T12:44:20.102Z,19.50
2019-02-18T12:46:49.861Z,19.50
2019-02-18T12:49:19.620Z,19.50
2019-02-18T12:51:49.559Z,19.50
2019-02-18T12:54:19.324Z,19.50
2019-02-18T12:56:49.129Z,19.50
2019-02-18T12:59:18.888Z,19.50
2019-02-18T13:01:48.629Z,19.50
2019-02-18T13:04:18.389Z,19.50
2019-02-18T13:06:48.155Z,19.60
2019-02-18T13:09:18.191Z,19.60
2019-02-18T13:11:47.948Z,19.60
2019-02-18T13:14:17.684Z,19.60
2019-02-18T13:16:47.459Z,19.60
2019-02-18T13:19:17.192Z,19.60
2019-02-18T13:21:46.955Z,19.60
2019-02-18T13:24:16.899Z,19.60
2019-02-18T13:26:46.699Z,19.60
2019-02-18T13:29:16.429Z,19.60
2019-02-18T13:31:46.171Z,19.70
2019-02-18T13:34:15.945Z,19.70
2019-02-18T13:36:45.681Z,19.70
2019-02-18T13:39:15.836Z,19.70
2019-02-18T13:41:45.585Z,19.70
2019-02-18T13:44:15.352Z,19.70
2019-02-18T13:46:45.091Z,19.70
2019-02-18T13:49:14.865Z,19.70
2019-02-18T13:51:44.596Z,19.70
2019-02-18T13:54:14.670Z,19.70
2019-02-18T13:56:44.441Z,19.70
2019-02-18T13:59:14.189Z,19.60
2019-02-18T14:01:43.951Z,19.60
2019-02-18T14:04:13.687Z,19.60
2019-02-18T14:06:43.444Z,19.60
2019-02-18T14:09:13.489Z,19.60
2019-02-18T14:11:43.249Z,19.60
2019-02-18T14:14:14.069Z,19.50
2019-02-18T14:16:43.822Z,19.50
2019-02-18T14:19:13.597Z,19.50
2019-02-18T14:21:43.352Z,19.50
2019-02-18T14:24:13.110Z,19.50
2019-02-18T14:26:42.850Z,19.50
2019-02-18T14:29:12.602Z,19.50
2019-02-18T14:31:42.346Z,19.50
2019-02-18T14:34:12.189Z,19.50
2019-02-18T14:36:42.172Z,19.50
2019-02-18T14:39:13.569Z,19.50
2019-02-18T14:41:43.304Z,19.50
2019-02-18T14:44:13.066Z,19.50
2019-02-18T14:46:42.816Z,19.50
2019-02-18T14:49:12.621Z,19.50
2019-02-18T14:51:42.480Z,19.50
2019-02-18T14:54:12.247Z,19.50
2019-02-18T14:56:42.012Z,19.50
2019-02-18T14:59:11.787Z,19.50
2019-02-18T15:01:41.557Z,19.50
2019-02-18T15:04:11.293Z,19.50
2019-02-18T15:06:41.049Z,19.50
2019-02-18T15:09:10.791Z,19.60
2019-02-18T15:11:40.551Z,19.50
2019-02-18T15:14:10.565Z,19.50
2019-02-18T15:16:40.324Z,19.50
2019-02-18T15:19:10.472Z,19.50
2019-02-18T15:21:40.234Z,19.40
2019-02-18T15:24:10.743Z,19.40
2019-02-18T15:26:40.568Z,19.40
2019-02-18T15:29:10.340Z,19.40
2019-02-18T15:31:40.059Z,19.30
2019-02-18T15:34:11.199Z,19.30
2019-02-18T15:36:40.945Z,19.30
2019-02-18T15:39:10.704Z,19.30
2019-02-18T15:41:40.525Z,19.30
2019-02-18T15:44:10.291Z,19.20
2019-02-18T15:46:40.037Z,19.20
2019-02-18T15:49:09.799Z,19.30
2019-02-18T15:51:39.561Z,19.20
2019-02-18T15:54:09.299Z,19.30
2019-02-18T15:56:39.063Z,19.20
2019-02-18T15:59:08.788Z,19.20
2019-02-18T16:01:38.961Z,19.20
2019-02-18T16:04:08.717Z,19.20
2019-02-18T16:06:38.471Z,19.20
2019-02-18T16:09:08.281Z,19.20
2019-02-18T16:11:38.895Z,19.20
2019-02-18T16:14:08.693Z,19.20
2019-02-18T16:16:38.656Z,19.20
2019-02-18T16:19:08.404Z,19.20
2019-02-18T16:21:38.163Z,19.20
2019-02-18T16:24:07.902Z,19.10
2019-02-18T16:26:37.632Z,19.10
2019-02-18T16:29:07.388Z,19.10
2019-02-18T16:31:37.323Z,19.10
2019-02-18T16:34:07.390Z,19.10
2019-02-18T16:36:37.124Z,19.10
2019-02-18T16:39:08.530Z,19.10
2019-02-18T16:41:38.365Z,19.10
2019-02-18T16:44:08.120Z,19.10
2019-02-18T16:46:37.852Z,19.10
2019-02-18T16:49:07.617Z,19.00
2019-02-18T16:51:37.372Z,19.10
2019-02-18T16:54:07.105Z,19.10
2019-02-18T16:56:36.836Z,19.10
2019-02-18T16:59:06.603Z,19.10
2019-02-18T17:01:36.356Z,19.10
2019-02-18T17:04:06.083Z,19.00
2019-02-18T17:06:35.839Z,19.00
2019-02-18T17:09:08.833Z,19.00
2019-02-18T17:11:38.896Z,19.10
2019-02-18T17:14:08.625Z,19.10
2019-02-18T17:16:38.385Z,19.00
2019-02-18T17:19:08.144Z,19.10
2019-02-18T17:21:37.884Z,19.10
2019-02-18T17:24:07.641Z,19.10
2019-02-18T17:26:37.678Z,19.10
2019-02-18T17:29:07.410Z,19.10
2019-02-18T17:31:37.171Z,19.00
2019-02-18T17:34:06.910Z,19.00
2019-02-18T17:36:36.683Z,19.00
2019-02-18T17:39:06.868Z,19.00
2019-02-18T17:41:36.937Z,19.10
2019-02-18T17:44:06.668Z,19.10
2019-02-18T17:46:36.436Z,19.10
2019-02-18T17:49:06.215Z,19.10
2019-02-18T17:51:35.955Z,19.10
2019-02-18T17:54:05.731Z,19.10
2019-02-18T17:56:35.786Z,19.10
2019-02-18T17:59:05.548Z,19.10
2019-02-18T18:01:35.284Z,19.10
2019-02-18T18:04:05.045Z,19.00
2019-02-18T18:06:35.462Z,19.00
2019-02-18T18:09:06.860Z,19.00
2019-02-18T18:11:36.870Z,19.00
2019-02-18T18:14:07.311Z,19.00
2019-02-18T18:16:37.059Z,19.00
2019-02-18T18:19:09.281Z,19.00
2019-02-18T18:21:38.199Z,19.00
2019-02-18T18:24:09.109Z,19.00
2019-02-18T18:26:38.869Z,19.00
2019-02-18T18:29:09.239Z,19.00
2019-02-18T18:31:38.992Z,19.00
2019-02-18T18:34:08.767Z,19.00
2019-02-18T18:36:38.514Z,19.00
2019-02-18T18:39:08.287Z,19.00
2019-02-18T18:41:38.072Z,19.00
2019-02-18T18:44:07.904Z,19.00
2019-02-18T18:46:37.670Z,19.00
2019-02-18T18:49:09.048Z,19.00
2019-02-18T18:51:40.361Z,19.00
2019-02-18T18:54:10.110Z,19.00
2019-02-18T18:56:39.908Z,19.00
2019-02-18T18:59:11.155Z,19.00
2019-02-18T19:01:40.930Z,19.00
2019-02-18T19:04:10.891Z,19.00
2019-02-18T19:06:40.676Z,19.00
2019-02-18T19:09:10.445Z,19.00
2019-02-18T19:11:40.480Z,18.90
2019-02-18T19:14:10.243Z,19.00
2019-02-18T19:16:40.024Z,18.90
2019-02-18T19:19:10.709Z,19.00
2019-02-18T19:21:41.880Z,18.90
2019-02-18T19:24:11.627Z,19.00
2019-02-18T19:26:47.074Z,18.90
2019-02-18T19:29:17.931Z,18.90
2019-02-18T19:31:51.752Z,19.00
2019-02-18T19:34:22.806Z,18.90
2019-02-18T19:37:04.181Z,18.90
2019-02-18T19:39:33.958Z,18.90
2019-02-18T19:42:03.717Z,18.90
2019-02-18T19:44:34.779Z,18.90
2019-02-18T19:47:11.119Z,18.90
2019-02-18T19:49:37.373Z,18.90
2019-02-18T19:52:07.232Z,18.90
2019-02-18T19:54:40.821Z,18.90
2019-02-18T19:57:14.689Z,18.90
2019-02-18T19:59:46.039Z,18.90
2019-02-18T20:02:15.832Z,18.90
2019-02-18T20:04:49.670Z,18.90
2019-02-18T20:07:20.525Z,18.90
2019-02-18T20:09:52.408Z,18.90
2019-02-18T20:12:23.542Z,18.90
2019-02-18T20:14:56.584Z,19.00
2019-02-18T20:17:26.076Z,18.90
2019-02-18T20:19:58.183Z,18.90
2019-02-18T20:22:29.088Z,18.90
2019-02-18T20:25:02.149Z,18.90
2019-02-18T20:27:33.417Z,19.00
2019-02-18T20:30:04.042Z,18.90
2019-02-18T20:32:33.956Z,18.90
2019-02-18T20:35:07.455Z,18.90
2019-02-18T20:37:36.626Z,18.90
2019-02-18T20:40:07.741Z,18.90
2019-02-18T20:42:38.098Z,18.90
2019-02-18T20:45:11.155Z,19.00
2019-02-18T20:47:41.993Z,19.00
2019-02-18T20:50:13.951Z,19.00
2019-02-18T20:52:45.329Z,19.00
2019-02-18T20:55:15.838Z,18.90
2019-02-18T20:57:46.976Z,18.90
2019-02-18T21:00:21.054Z,18.90
2019-02-18T21:02:52.468Z,18.90
2019-02-18T21:05:22.260Z,18.90
2019-02-18T21:07:54.268Z,18.90
2019-02-18T21:10:25.656Z,18.90
2019-02-18T21:12:55.682Z,19.00
2019-02-18T21:15:25.515Z,18.90
2019-02-18T21:17:55.549Z,18.90
2019-02-18T21:20:26.717Z,19.00
2019-02-18T21:22:57.032Z,19.00
2019-02-18T21:25:26.850Z,19.00
2019-02-18T21:27:56.620Z,19.00
2019-02-18T21:30:27.769Z,19.00
2019-02-18T21:32:57.519Z,18.90
2019-02-18T21:35:30.743Z,18.90
2019-02-18T21:38:01.018Z,19.00
2019-02-18T21:40:30.771Z,19.00
2019-02-18T21:43:00.548Z,18.90
2019-02-18T21:45:31.414Z,18.90
2019-02-18T21:48:02.617Z,18.90
2019-02-18T21:50:32.494Z,19.00
2019-02-18T21:53:02.577Z,18.80
2019-02-18T21:55:32.342Z,18.70
2019-02-18T21:58:04.180Z,18.80
2019-02-18T22:00:33.949Z,18.90
2019-02-18T22:03:03.702Z,18.90
2019-02-18T22:05:33.460Z,18.90
2019-02-18T22:08:03.216Z,18.90
2019-02-18T22:10:32.983Z,18.90
2019-02-18T22:13:02.652Z,18.90
2019-02-18T22:15:33.412Z,19.00
2019-02-18T22:18:03.149Z,19.00
2019-02-18T22:20:32.837Z,19.00
2019-02-18T22:23:02.580Z,19.00
2019-02-18T22:25:32.478Z,19.00
2019-02-18T22:28:02.217Z,19.00
2019-02-18T22:30:31.886Z,19.10
2019-02-18T22:33:01.837Z,19.10
2019-02-18T22:35:31.580Z,19.10
2019-02-18T22:38:01.409Z,19.10
2019-02-18T22:40:31.217Z,19.20
2019-02-18T22:43:01.076Z,19.10
2019-02-18T22:45:30.845Z,19.20
2019-02-18T22:48:00.902Z,19.20
2019-02-18T22:50:30.678Z,19.20
2019-02-18T22:53:00.402Z,19.20
2019-02-18T22:55:30.235Z,19.20
2019-02-18T22:58:01.577Z,19.20
2019-02-18T23:00:45.090Z,19.20
2019-02-18T23:03:15.989Z,19.10
2019-02-18T23:05:45.753Z,19.20
2019-02-18T23:08:15.490Z,19.10
2019-02-18T23:10:45.232Z,19.10
2019-02-18T23:13:15.112Z,19.10
2019-02-18T23:15:44.769Z,19.10
2019-02-18T23:18:14.697Z,19.10
2019-02-18T23:20:44.480Z,19.10
2019-02-18T23:23:14.236Z,19.10
2019-02-18T23:25:43.891Z,19.10
2019-02-18T23:28:13.572Z,19.10
2019-02-18T23:30:43.315Z,19.10
2019-02-18T23:33:13.072Z,19.10
2019-02-18T23:35:42.816Z,19.10
2019-02-18T23:38:12.535Z,19.10
2019-02-18T23:40:42.351Z,19.10
2019-02-18T23:43:12.014Z,19.10
2019-02-18T23:45:41.692Z,19.10
2019-02-18T23:48:11.352Z,19.10
2019-02-18T23:50:41.067Z,19.10
2019-02-18T23:53:10.725Z,19.10
2019-02-18T23:55:40.404Z,19.10
2019-02-18T23:58:10.140Z,19.10
